Time;durP1;ratioP1;P1;durP2;ratioP2;P2;SDS_P1;SDS_P2;PMS_P1;PMS_P2;Temp;Humidity;BMP_temperature;BMP_pressure;BME280_temperature;BME280_humidity;BME280_pressure;Samples;Min_cycle;Max_cycle;Signal;HPM_P1;HPM_P2
2022/04/08 00:01:22;;;;;;;1.73;0.82;;;;;;;;;;4993749;28;20054;-59
2022/04/08 00:03:49;;;;;;;1.13;0.60;;;;;;;;;;4993803;28;20050;-60
2022/04/08 00:06:17;;;;;;;3.58;0.70;;;;;;;;;;4993557;28;20061;-58
2022/04/08 00:08:46;;;;;;;1.27;0.60;;;;;;;;;;4993853;28;20050;-59
2022/04/08 00:11:13;;;;;;;2.30;1.15;;;;;;;;;;4993965;28;20137;-58
2022/04/08 00:13:41;;;;;;;1.70;0.60;;;;;;;;;;4993907;28;20447;-60
2022/04/08 00:16:08;;;;;;;2.53;0.73;;;;;;;;;;4993497;28;20059;-61
2022/04/08 00:18:36;;;;;;;1.77;0.80;;;;;;;;;;4993746;28;20062;-57
2022/04/08 00:21:03;;;;;;;2.55;0.77;;;;;;;;;;4993354;28;20403;-58
2022/04/08 00:23:32;;;;;;;1.92;0.70;;;;;;;;;;4993621;28;20145;-60
2022/04/08 00:25:59;;;;;;;1.60;0.70;;;;;;;;;;4993072;28;20050;-60
2022/04/08 00:28:26;;;;;;;0.73;0.50;;;;;;;;;;4993491;28;20054;-59
2022/04/08 00:30:53;;;;;;;2.90;0.60;;;;;;;;;;4993873;28;20050;-58
2022/04/08 00:33:20;;;;;;;0.88;0.57;;;;;;;;;;4993551;28;20054;-57
2022/04/08 00:35:47;;;;;;;7.30;1.02;;;;;;;;;;4993082;28;20439;-59
2022/04/08 00:38:14;;;;;;;0.93;0.57;;;;;;;;;;4993418;28;20057;-59
2022/04/08 00:40:42;;;;;;;1.42;0.63;;;;;;;;;;4993466;28;20050;-59
2022/04/08 00:43:14;;;;;;;2.47;0.60;;;;;;;;;;4993566;28;20171;-59
2022/04/08 00:45:41;;;;;;;3.80;0.80;;;;;;;;;;4983250;28;20491;-60
2022/04/08 00:48:09;;;;;;;1.75;0.73;;;;;;;;;;4974082;28;20057;-60
2022/04/08 00:50:36;;;;;;;2.42;0.80;;;;;;;;;;4974126;28;20527;-60
2022/04/08 00:53:03;;;;;;;1.73;0.60;;;;;;;;;;4973871;28;20113;-62
2022/04/08 00:55:30;;;;;;;1.33;0.70;;;;;;;;;;4973490;28;20047;-60
2022/04/08 00:58:02;;;;;;;1.70;0.70;;;;;;;;;;4973620;28;20061;-61
2022/04/08 01:00:33;;;;;;;2.00;0.90;;;;;;;;;;4973672;28;20050;-61
2022/04/08 01:03:00;;;;;;;4.57;1.10;;;;;;;;;;4973866;28;20051;-60
2022/04/08 01:05:28;;;;;;;2.88;0.85;;;;;;;;;;4973577;28;20054;-59
2022/04/08 01:07:55;;;;;;;1.88;0.77;;;;;;;;;;4973889;28;20073;-60
2022/04/08 01:10:22;;;;;;;1.88;0.75;;;;;;;;;;4973607;28;20582;-60
2022/04/08 01:12:50;;;;;;;2.45;0.80;;;;;;;;;;4973494;28;20412;-60
2022/04/08 01:15:19;;;;;;;3.40;0.93;;;;;;;;;;4973969;28;20055;-60
2022/04/08 01:17:47;;;;;;;1.90;0.77;;;;;;;;;;4977490;28;20053;-60
2022/04/08 01:20:14;;;;;;;2.30;1.10;;;;;;;;;;4977446;28;20054;-60
2022/04/08 01:22:41;;;;;;;2.15;0.65;;;;;;;;;;4977633;28;20058;-60
2022/04/08 01:25:11;;;;;;;6.95;1.20;;;;;;;;;;4977236;28;20515;-60
2022/04/08 01:27:39;;;;;;;4.47;0.95;;;;;;;;;;4977153;28;20053;-60
2022/04/08 01:30:08;;;;;;;3.17;1.10;;;;;;;;;;4991438;28;20483;-59
2022/04/08 01:32:35;;;;;;;4.38;1.08;;;;;;;;;;4995991;28;20054;-58
2022/04/08 01:35:02;;;;;;;2.03;0.95;;;;;;;;;;4996279;28;20058;-58
2022/04/08 01:37:29;;;;;;;3.40;1.58;;;;;;;;;;4996321;28;20246;-59
2022/04/08 01:39:56;;;;;;;4.30;2.08;;;;;;;;;;4996368;28;20500;-62
2022/04/08 01:42:24;;;;;;;6.97;1.92;;;;;;;;;;4996304;28;20042;-61
2022/04/08 01:44:52;;;;;;;5.20;1.85;;;;;;;;;;4996444;28;20393;-61
2022/04/08 01:47:20;;;;;;;6.88;2.08;;;;;;;;;;4996418;28;20042;-62
2022/04/08 01:49:46;;;;;;;7.10;2.35;;;;;;;;;;4996708;28;20065;-58
2022/04/08 01:52:13;;;;;;;7.88;2.10;;;;;;;;;;4996525;28;20062;-60
2022/04/08 01:54:41;;;;;;;9.52;2.67;;;;;;;;;;4996416;28;20415;-60
2022/04/08 01:57:08;;;;;;;4.72;2.20;;;;;;;;;;4996141;28;20427;-62
2022/04/08 01:59:36;;;;;;;7.28;3.45;;;;;;;;;;4996350;28;20073;-58
2022/04/08 02:02:03;;;;;;;7.07;1.98;;;;;;;;;;4996065;28;20053;-60
2022/04/08 02:04:30;;;;;;;4.32;1.70;;;;;;;;;;4996055;28;20057;-58
2022/04/08 02:06:58;;;;;;;7.28;2.30;;;;;;;;;;4996143;28;20050;-62
2022/04/08 02:09:25;;;;;;;6.05;1.90;;;;;;;;;;4995759;28;20054;-58
2022/04/08 02:11:51;;;;;;;6.20;1.77;;;;;;;;;;4995975;28;20062;-60
2022/04/08 02:14:18;;;;;;;8.75;2.45;;;;;;;;;;4995788;28;20050;-60
2022/04/08 02:16:47;;;;;;;6.53;1.80;;;;;;;;;;4995586;28;20377;-60
2022/04/08 02:19:14;;;;;;;5.72;1.80;;;;;;;;;;4995567;28;20046;-59
2022/04/08 02:21:42;;;;;;;8.85;2.08;;;;;;;;;;4995341;28;20050;-58
2022/04/08 02:24:09;;;;;;;7.05;2.00;;;;;;;;;;4995093;28;20057;-59
2022/04/08 02:26:36;;;;;;;8.65;2.05;;;;;;;;;;4994395;28;20046;-59
2022/04/08 02:29:03;;;;;;;13.25;2.53;;;;;;;;;;4995159;28;20423;-61
2022/04/08 02:31:30;;;;;;;8.80;2.03;;;;;;;;;;4995465;28;20050;-59
2022/04/08 02:33:58;;;;;;;7.10;2.10;;;;;;;;;;4995366;28;20468;-60
2022/04/08 02:36:25;;;;;;;9.02;2.45;;;;;;;;;;4995174;28;20054;-60
2022/04/08 02:38:52;;;;;;;6.43;2.38;;;;;;;;;;4995155;28;20057;-60
2022/04/08 02:41:19;;;;;;;5.80;2.20;;;;;;;;;;4995281;28;20057;-60
2022/04/08 02:43:48;;;;;;;13.48;3.17;;;;;;;;;;4995026;28;20054;-60
2022/04/08 02:46:15;;;;;;;9.30;2.10;;;;;;;;;;4980077;28;20055;-58
2022/04/08 02:48:42;;;;;;;9.30;2.28;;;;;;;;;;4975616;28;20053;-59
2022/04/08 02:51:10;;;;;;;4.10;1.60;;;;;;;;;;4975401;28;20058;-59
2022/04/08 02:53:37;;;;;;;8.32;2.55;;;;;;;;;;4975505;28;20073;-58
2022/04/08 02:56:04;;;;;;;7.93;2.35;;;;;;;;;;4975548;28;20047;-59
2022/04/08 02:58:31;;;;;;;8.00;2.05;;;;;;;;;;4975505;28;20050;-59
2022/04/08 03:00:59;;;;;;;7.05;1.90;;;;;;;;;;4975236;28;20071;-59
2022/04/08 03:03:27;;;;;;;7.22;1.98;;;;;;;;;;4975400;28;20066;-60
2022/04/08 03:05:54;;;;;;;7.05;2.60;;;;;;;;;;4974829;28;20105;-59
2022/04/08 03:08:23;;;;;;;6.57;1.98;;;;;;;;;;4974925;28;20492;-59
2022/04/08 03:10:50;;;;;;;6.78;2.20;;;;;;;;;;4975223;28;20050;-60
2022/04/08 03:13:17;;;;;;;8.32;2.15;;;;;;;;;;4975292;28;20054;-60
2022/04/08 03:15:44;;;;;;;6.60;2.15;;;;;;;;;;4975183;28;20416;-61
2022/04/08 03:18:11;;;;;;;6.85;2.15;;;;;;;;;;4975292;28;20050;-57
2022/04/08 03:20:38;;;;;;;8.32;2.08;;;;;;;;;;4975585;28;20136;-61
2022/04/08 03:23:05;;;;;;;4.72;1.90;;;;;;;;;;4974999;28;20051;-60
2022/04/08 03:25:34;;;;;;;5.68;1.90;;;;;;;;;;4974612;28;20043;-60
2022/04/08 03:28:00;;;;;;;5.88;1.95;;;;;;;;;;4996895;23;20464;-79
2022/04/08 03:30:27;;;;;;;6.63;1.98;;;;;;;;;;4993035;28;20445;-80
2022/04/08 03:32:55;;;;;;;6.43;1.92;;;;;;;;;;4997854;28;20046;-80
2022/04/08 03:35:22;;;;;;;5.03;2.00;;;;;;;;;;4998894;28;20106;-79
2022/04/08 03:37:49;;;;;;;6.53;1.60;;;;;;;;;;4997546;28;20074;-80
2022/04/08 03:40:16;;;;;;;5.43;1.70;;;;;;;;;;4997920;28;20054;-81
2022/04/08 03:42:44;;;;;;;5.50;1.77;;;;;;;;;;4998320;28;20047;-80
2022/04/08 03:45:11;;;;;;;10.02;2.17;;;;;;;;;;4992101;28;20089;-79
2022/04/08 03:47:38;;;;;;;6.18;1.92;;;;;;;;;;4979152;28;20529;-80
2022/04/08 03:50:06;;;;;;;7.18;1.98;;;;;;;;;;4979699;28;20125;-80
2022/04/08 03:52:33;;;;;;;9.52;2.05;;;;;;;;;;4979553;28;20098;-81
2022/04/08 03:55:00;;;;;;;7.50;1.52;;;;;;;;;;4980015;28;20051;-81
2022/04/08 03:57:28;;;;;;;5.90;1.60;;;;;;;;;;4981895;28;20063;-79
2022/04/08 03:59:56;;;;;;;8.30;2.50;;;;;;;;;;4988518;28;20058;-79
2022/04/08 04:02:23;;;;;;;6.68;1.95;;;;;;;;;;4989182;28;20106;-79
2022/04/08 04:04:50;;;;;;;6.97;1.95;;;;;;;;;;4986228;28;20042;-81
2022/04/08 04:07:17;;;;;;;5.57;2.10;;;;;;;;;;4981804;28;20054;-82
2022/04/08 04:09:44;;;;;;;4.15;1.70;;;;;;;;;;4987489;28;20053;-79
2022/04/08 04:12:11;;;;;;;7.53;2.20;;;;;;;;;;4981873;28;20053;-79
2022/04/08 04:14:38;;;;;;;7.50;1.75;;;;;;;;;;4982014;28;20069;-80
2022/04/08 04:17:06;;;;;;;6.88;1.58;;;;;;;;;;4984375;28;20051;-80
2022/04/08 04:19:33;;;;;;;5.35;1.90;;;;;;;;;;4982250;28;20057;-81
2022/04/08 04:22:00;;;;;;;5.90;1.80;;;;;;;;;;4978854;28;20074;-80
2022/04/08 04:24:27;;;;;;;7.68;1.88;;;;;;;;;;4979052;28;20097;-81
2022/04/08 04:26:53;;;;;;;6.88;1.90;;;;;;;;;;4978470;28;20074;-82
2022/04/08 04:29:20;;;;;;;4.20;1.77;;;;;;;;;;4978779;28;20190;-81
2022/04/08 04:31:47;;;;;;;5.22;1.45;;;;;;;;;;4978916;28;20054;-81
2022/04/08 04:34:16;;;;;;;4.47;1.67;;;;;;;;;;4978302;28;20118;-80
2022/04/08 04:36:43;;;;;;;3.00;1.45;;;;;;;;;;4978001;28;20486;-80
2022/04/08 04:39:09;;;;;;;4.15;1.52;;;;;;;;;;4982285;28;20050;-82
2022/04/08 04:41:36;;;;;;;4.30;1.05;;;;;;;;;;4984168;28;20051;-80
2022/04/08 04:44:03;;;;;;;5.05;1.10;;;;;;;;;;4981916;28;20082;-82
2022/04/08 04:46:30;;;;;;;6.32;1.30;;;;;;;;;;4981812;28;20441;-82
2022/04/08 04:48:57;;;;;;;4.38;1.17;;;;;;;;;;4983290;28;20497;-81
2022/04/08 04:51:26;;;;;;;4.88;1.25;;;;;;;;;;4982873;28;20047;-83
2022/04/08 04:53:53;;;;;;;5.57;2.03;;;;;;;;;;4983460;28;20489;-81
2022/04/08 04:56:20;;;;;;;4.13;1.20;;;;;;;;;;4983751;28;20051;-81
2022/04/08 04:58:46;;;;;;;4.28;1.20;;;;;;;;;;4983027;28;20469;-80
2022/04/08 05:01:13;;;;;;;5.38;1.50;;;;;;;;;;4982889;28;20101;-79
2022/04/08 05:03:40;;;;;;;5.95;1.33;;;;;;;;;;4977642;28;20099;-81
2022/04/08 05:06:07;;;;;;;4.85;1.50;;;;;;;;;;4977296;28;20477;-81
2022/04/08 05:08:35;;;;;;;5.00;1.23;;;;;;;;;;4976094;28;20050;-79
2022/04/08 05:11:03;;;;;;;3.35;1.55;;;;;;;;;;4976364;28;20074;-79
2022/04/08 05:13:30;;;;;;;3.35;1.20;;;;;;;;;;4977316;28;20572;-80
2022/04/08 05:15:56;;;;;;;5.13;1.30;;;;;;;;;;4976445;28;20127;-81
2022/04/08 05:18:23;;;;;;;4.10;1.40;;;;;;;;;;4976968;28;20445;-80
2022/04/08 05:20:52;;;;;;;5.35;1.60;;;;;;;;;;4979589;28;20047;-79
2022/04/08 05:23:19;;;;;;;7.50;2.15;;;;;;;;;;4981280;28;20051;-79
2022/04/08 05:25:47;;;;;;;4.30;1.05;;;;;;;;;;4981808;28;20055;-82
2022/04/08 05:28:15;;;;;;;7.70;1.52;;;;;;;;;;4982417;28;20058;-81
2022/04/08 05:30:42;;;;;;;6.78;1.50;;;;;;;;;;4979009;28;20054;-80
2022/04/08 05:33:09;;;;;;;4.47;1.20;;;;;;;;;;4979148;28;20051;-80
2022/04/08 05:35:36;;;;;;;5.82;2.03;;;;;;;;;;4977892;28;20047;-80
2022/04/08 05:38:02;;;;;;;3.92;1.52;;;;;;;;;;4977197;28;20187;-79
2022/04/08 05:40:29;;;;;;;4.50;1.15;;;;;;;;;;4977475;28;20138;-79
2022/04/08 05:42:58;;;;;;;4.70;1.60;;;;;;;;;;4978875;28;20047;-80
2022/04/08 05:45:25;;;;;;;6.13;1.77;;;;;;;;;;4977401;28;20079;-79
2022/04/08 05:47:54;;;;;;;3.85;1.50;;;;;;;;;;4979844;28;20055;-81
2022/04/08 05:50:21;;;;;;;6.97;1.58;;;;;;;;;;4977502;28;20495;-79
2022/04/08 05:52:48;;;;;;;4.72;1.30;;;;;;;;;;4977640;28;20046;-80
2022/04/08 05:55:15;;;;;;;4.68;1.35;;;;;;;;;;4978005;28;20089;-79
2022/04/08 05:57:42;;;;;;;7.25;2.20;;;;;;;;;;4977735;28;20047;-80
2022/04/08 06:00:13;;;;;;;5.55;1.35;;;;;;;;;;4977514;28;20055;-79
2022/04/08 06:02:40;;;;;;;5.75;1.33;;;;;;;;;;4979356;28;20055;-79
2022/04/08 06:05:08;;;;;;;5.72;1.20;;;;;;;;;;4978707;28;20058;-79
2022/04/08 06:07:35;;;;;;;4.10;1.67;;;;;;;;;;4978605;28;20510;-78
2022/04/08 06:10:02;;;;;;;4.85;1.58;;;;;;;;;;4979091;28;20050;-77
2022/04/08 06:12:29;;;;;;;6.90;2.35;;;;;;;;;;4978967;28;20061;-79
2022/04/08 06:14:58;;;;;;;5.20;1.40;;;;;;;;;;4977770;28;20059;-79
2022/04/08 06:17:26;;;;;;;6.00;1.88;;;;;;;;;;4979144;28;20068;-79
2022/04/08 06:19:58;;;;;;;7.05;1.90;;;;;;;;;;4978766;28;20452;-80
2022/04/08 06:22:25;;;;;;;5.18;1.40;;;;;;;;;;4981123;28;20098;-79
2022/04/08 06:24:51;;;;;;;6.85;1.77;;;;;;;;;;4978617;28;20125;-78
2022/04/08 06:27:18;;;;;;;7.40;1.88;;;;;;;;;;4978917;28;20082;-79
2022/04/08 06:29:45;;;;;;;4.82;1.52;;;;;;;;;;4979337;28;20051;-78
2022/04/08 06:32:12;;;;;;;5.70;1.75;;;;;;;;;;4981023;28;20042;-81
2022/04/08 06:34:40;;;;;;;5.10;1.30;;;;;;;;;;4983049;28;20054;-81
2022/04/08 06:37:08;;;;;;;5.68;1.63;;;;;;;;;;4978746;28;20147;-81
2022/04/08 06:39:35;;;;;;;4.13;1.60;;;;;;;;;;4978962;28;20051;-80
2022/04/08 06:42:02;;;;;;;4.13;1.90;;;;;;;;;;4979755;28;20046;-79
2022/04/08 06:44:28;;;;;;;3.10;1.55;;;;;;;;;;4979692;28;20046;-81
2022/04/08 06:46:55;;;;;;;5.35;1.52;;;;;;;;;;4978908;28;20078;-79
2022/04/08 06:49:22;;;;;;;4.05;1.20;;;;;;;;;;4978169;28;20105;-78
2022/04/08 06:51:53;;;;;;;4.85;1.80;;;;;;;;;;4980248;28;20650;-79
2022/04/08 06:54:20;;;;;;;5.20;1.83;;;;;;;;;;4978166;28;20066;-78
2022/04/08 06:56:46;;;;;;;6.30;1.63;;;;;;;;;;4978169;28;20050;-80
2022/04/08 06:59:13;;;;;;;5.72;2.13;;;;;;;;;;4978337;28;20106;-79
2022/04/08 07:01:40;;;;;;;6.32;2.45;;;;;;;;;;4978764;28;20110;-79
2022/04/08 07:04:07;;;;;;;5.38;1.58;;;;;;;;;;4979650;28;20051;-78
2022/04/08 07:06:33;;;;;;;13.77;6.22;;;;;;;;;;4977084;28;20561;-80
2022/04/08 07:09:01;;;;;;;12.63;7.05;;;;;;;;;;4978435;28;20051;-79
2022/04/08 07:11:28;;;;;;;5.30;1.80;;;;;;;;;;4979318;28;20105;-78
2022/04/08 07:13:56;;;;;;;3.63;1.77;;;;;;;;;;4976889;28;20081;-78
2022/04/08 07:16:23;;;;;;;7.25;1.90;;;;;;;;;;4977795;28;20105;-78
2022/04/08 07:18:50;;;;;;;4.90;1.77;;;;;;;;;;4978796;28;20402;-79
2022/04/08 07:21:17;;;;;;;5.10;2.33;;;;;;;;;;4980941;28;20050;-81
2022/04/08 07:23:44;;;;;;;4.18;1.65;;;;;;;;;;4984025;28;20051;-80
2022/04/08 07:26:12;;;;;;;5.72;1.73;;;;;;;;;;4983158;28;20051;-81
2022/04/08 07:28:39;;;;;;;5.50;1.85;;;;;;;;;;4981438;28;20453;-80
2022/04/08 07:31:06;;;;;;;5.22;1.80;;;;;;;;;;4982049;28;20055;-80
2022/04/08 07:33:33;;;;;;;4.13;1.70;;;;;;;;;;4982416;28;20080;-80
2022/04/08 07:35:59;;;;;;;3.92;1.65;;;;;;;;;;4983175;28;20046;-80
2022/04/08 07:38:26;;;;;;;5.22;2.30;;;;;;;;;;4974331;28;20111;-79
2022/04/08 07:40:53;;;;;;;5.78;1.90;;;;;;;;;;4959602;28;20047;-78
2022/04/08 07:43:21;;;;;;;4.80;1.70;;;;;;;;;;4978732;28;20085;-80
2022/04/08 07:45:48;;;;;;;4.78;1.92;;;;;;;;;;4971410;28;20558;-80
2022/04/08 07:48:18;;;;;;;4.88;2.30;;;;;;;;;;4960668;28;20048;-80
2022/04/08 07:50:44;;;;;;;5.30;1.50;;;;;;;;;;4969624;28;20455;-77
2022/04/08 07:53:11;;;;;;;4.07;1.40;;;;;;;;;;4976183;28;20494;-80
2022/04/08 07:55:38;;;;;;;4.10;1.52;;;;;;;;;;4976514;28;20131;-79
2022/04/08 07:58:05;;;;;;;3.95;1.77;;;;;;;;;;4976304;28;20063;-79
2022/04/08 08:00:34;;;;;;;5.05;1.50;;;;;;;;;;4976184;28;20106;-79
2022/04/08 08:03:01;;;;;;;5.05;1.80;;;;;;;;;;4976324;28;20109;-79
2022/04/08 08:05:28;;;;;;;4.15;1.77;;;;;;;;;;4977158;28;20047;-80
2022/04/08 08:07:57;;;;;;;2.70;1.23;;;;;;;;;;4975197;28;20050;-81
2022/04/08 08:10:26;;;;;;;6.68;1.60;;;;;;;;;;4976488;28;20066;-79
2022/04/08 08:12:53;;;;;;;2.08;1.20;;;;;;;;;;4976421;28;20047;-79
2022/04/08 08:15:21;;;;;;;5.55;1.38;;;;;;;;;;4976503;28;20082;-79
2022/04/08 08:17:50;;;;;;;5.90;1.42;;;;;;;;;;4976590;28;20039;-80
2022/04/08 08:20:20;;;;;;;3.55;1.27;;;;;;;;;;4977960;28;20047;-79
2022/04/08 08:22:47;;;;;;;4.38;1.40;;;;;;;;;;4977721;28;20536;-80
2022/04/08 08:25:14;;;;;;;3.22;1.63;;;;;;;;;;4977521;28;20051;-80
2022/04/08 08:27:42;;;;;;;4.53;1.33;;;;;;;;;;4977428;28;20629;-80
2022/04/08 08:30:11;;;;;;;6.72;1.65;;;;;;;;;;4978944;28;20053;-79
2022/04/08 08:32:38;;;;;;;2.58;1.13;;;;;;;;;;4979266;28;20546;-81
2022/04/08 08:35:08;;;;;;;5.05;1.70;;;;;;;;;;4980722;28;20125;-79
2022/04/08 08:37:35;;;;;;;5.30;2.00;;;;;;;;;;4979791;28;20050;-79
2022/04/08 08:40:03;;;;;;;5.20;1.75;;;;;;;;;;4980630;28;20343;-80
2022/04/08 08:42:30;;;;;;;6.60;2.22;;;;;;;;;;4981053;28;20054;-80
2022/04/08 08:44:57;;;;;;;4.35;1.40;;;;;;;;;;4980436;28;20054;-80
2022/04/08 08:47:27;;;;;;;4.13;1.40;;;;;;;;;;4986322;28;20050;-80
2022/04/08 08:49:55;;;;;;;5.10;1.67;;;;;;;;;;4990453;28;20051;-78
2022/04/08 08:52:24;;;;;;;3.85;1.70;;;;;;;;;;4988079;28;20054;-77
2022/04/08 08:54:52;;;;;;;6.15;1.38;;;;;;;;;;4986756;28;20122;-79
2022/04/08 08:57:20;;;;;;;5.20;1.65;;;;;;;;;;4986210;28;20046;-80
2022/04/08 08:59:48;;;;;;;4.30;1.50;;;;;;;;;;4982844;28;20046;-80
2022/04/08 09:02:18;;;;;;;5.78;1.88;;;;;;;;;;4979020;28;20556;-81
2022/04/08 09:04:45;;;;;;;;;;;;;;;;;;4979820;28;20720;-80
2022/04/08 09:07:24;;;;;;;4.22;1.35;;;;;;;;;;4978969;28;19949;-81
2022/04/08 09:09:52;;;;;;;2.25;1.33;;;;;;;;;;4981355;28;20089;-81
2022/04/08 09:12:19;;;;;;;3.55;1.42;;;;;;;;;;4981118;28;20109;-82
2022/04/08 09:14:49;;;;;;;3.70;1.20;;;;;;;;;;4982344;28;20124;-79
2022/04/08 09:17:17;;;;;;;3.83;1.52;;;;;;;;;;4982297;28;20130;-78
2022/04/08 09:19:48;;;;;;;3.33;1.30;;;;;;;;;;4984458;28;20085;-77
2022/04/08 09:22:15;;;;;;;4.45;1.60;;;;;;;;;;4990618;28;20063;-78
2022/04/08 09:24:44;;;;;;;5.05;1.60;;;;;;;;;;4991733;28;20054;-82
2022/04/08 09:27:11;;;;;;;2.00;1.15;;;;;;;;;;4987324;28;20046;-80
2022/04/08 09:29:39;;;;;;;4.72;1.50;;;;;;;;;;5027471;23;20315;-81
2022/04/08 09:32:10;;;;;;;4.43;1.38;;;;;;;;;;4983013;28;20068;-80
2022/04/08 09:34:37;;;;;;;3.28;1.20;;;;;;;;;;4983135;28;20070;-80
2022/04/08 09:37:07;;;;;;;3.00;1.17;;;;;;;;;;4984430;28;20042;-80
2022/04/08 09:39:34;;;;;;;4.47;1.70;;;;;;;;;;4987934;28;20077;-82
2022/04/08 09:42:05;;;;;;;5.03;1.35;;;;;;;;;;4987617;28;20051;-81
2022/04/08 09:44:35;;;;;;;3.33;1.70;;;;;;;;;;4988397;28;20038;-81
2022/04/08 09:47:02;;;;;;;2.78;1.20;;;;;;;;;;4969317;29;20137;-81
2022/04/08 09:49:28;;;;;;;3.38;1.50;;;;;;;;;;4971274;29;20517;-80
2022/04/08 09:51:57;;;;;;;2.80;1.20;;;;;;;;;;4970930;29;20102;-81
2022/04/08 09:54:28;;;;;;;4.07;1.30;;;;;;;;;;4969559;29;20047;-80
2022/04/08 09:56:58;;;;;;;3.30;1.35;;;;;;;;;;4967849;29;20043;-81
2022/04/08 09:59:29;;;;;;;4.20;1.40;;;;;;;;;;4966818;29;20047;-81
2022/04/08 10:01:57;;;;;;;5.18;1.55;;;;;;;;;;4969702;29;20084;-81
2022/04/08 10:04:25;;;;;;;23.60;11.90;;;;;;;;;;4966601;29;20510;-79
2022/04/08 10:06:51;;;;;;;8.48;3.00;;;;;;;;;;4968748;29;20047;-78
2022/04/08 10:09:20;;;;;;;3.50;1.63;;;;;;;;;;4966889;29;20051;-81
2022/04/08 10:11:57;;;;;;;4.22;1.60;;;;;;;;;;4970618;29;20098;-80
2022/04/08 10:14:41;;;;;;;4.35;2.05;;;;;;;;;;4967465;29;20137;-81
2022/04/08 10:17:09;;;;;;;7.10;3.72;;;;;;;;;;4965943;29;20102;-83
2022/04/08 10:19:36;;;;;;;6.88;3.25;;;;;;;;;;4966499;29;20071;-79
2022/04/08 10:22:04;;;;;;;4.82;2.33;;;;;;;;;;4963285;29;20047;-83
2022/04/08 10:24:32;;;;;;;6.80;2.85;;;;;;;;;;4962791;29;20047;-82
2022/04/08 10:27:04;;;;;;;11.75;6.10;;;;;;;;;;4966749;29;20087;-78
2022/04/08 10:29:34;;;;;;;6.65;2.80;;;;;;;;;;4979004;28;20043;-79
2022/04/08 10:32:03;;;;;;;9.63;4.33;;;;;;;;;;4975048;28;20051;-81
2022/04/08 10:34:32;;;;;;;6.38;3.00;;;;;;;;;;4963530;29;20102;-82
2022/04/08 10:37:00;;;;;;;4.40;2.50;;;;;;;;;;4962724;29;20059;-81
2022/04/08 10:39:27;;;;;;;5.28;2.45;;;;;;;;;;4969311;29;20035;-80
2022/04/08 10:41:56;;;;;;;6.65;2.80;;;;;;;;;;4965224;29;20122;-81
2022/04/08 10:44:35;;;;;;;4.93;2.50;;;;;;;;;;4957861;29;20043;-80
2022/04/08 10:47:04;;;;;;;3.47;2.00;;;;;;;;;;4942206;29;20063;-81
2022/04/08 10:49:32;;;;;;;5.60;2.15;;;;;;;;;;4941358;29;20047;-81
2022/04/08 10:51:58;;;;;;;5.90;2.83;;;;;;;;;;4948903;29;20479;-78
2022/04/08 10:54:35;;;;;;;5.50;2.70;;;;;;;;;;4952368;29;20106;-80
2022/04/08 10:57:02;;;;;;;25.23;15.70;;;;;;;;;;4950239;29;20062;-79
2022/04/08 10:59:30;;;;;;;7.15;3.63;;;;;;;;;;4943124;29;20110;-82
2022/04/08 11:02:06;;;;;;;5.68;3.92;;;;;;;;;;4943544;29;20613;-82
2022/04/08 11:04:34;;;;;;;5.68;2.80;;;;;;;;;;4942611;29;20486;-78
2022/04/08 11:07:05;;;;;;;5.72;3.20;;;;;;;;;;4942730;29;20056;-80
2022/04/08 11:09:33;;;;;;;4.18;2.50;;;;;;;;;;4943124;29;20052;-81
2022/04/08 11:12:00;;;;;;;4.70;2.65;;;;;;;;;;4942598;29;20527;-82
2022/04/08 11:14:28;;;;;;;7.72;3.10;;;;;;;;;;4943782;29;20052;-80
2022/04/08 11:16:55;;;;;;;8.30;3.47;;;;;;;;;;4944424;29;20048;-82
2022/04/08 11:19:23;;;;;;;7.20;3.22;;;;;;;;;;4942423;29;20081;-80
2022/04/08 11:21:51;;;;;;;7.80;3.15;;;;;;;;;;4942317;29;20052;-80
2022/04/08 11:24:19;;;;;;;5.50;3.13;;;;;;;;;;4943090;29;20119;-81
2022/04/08 11:26:48;;;;;;;6.75;3.53;;;;;;;;;;4946917;29;20082;-82
2022/04/08 11:29:16;;;;;;;5.80;3.13;;;;;;;;;;4945092;29;20051;-82
2022/04/08 11:31:44;;;;;;;6.63;3.40;;;;;;;;;;4946433;29;20080;-81
2022/04/08 11:34:13;;;;;;;6.53;3.47;;;;;;;;;;4947941;29;20135;-82
2022/04/08 11:36:41;;;;;;;5.90;3.30;;;;;;;;;;4947267;29;20058;-83
2022/04/08 11:39:09;;;;;;;6.90;3.90;;;;;;;;;;4954844;29;20062;-80
2022/04/08 11:41:38;;;;;;;9.07;4.13;;;;;;;;;;4954599;29;20054;-80
2022/04/08 11:44:07;;;;;;;5.68;3.25;;;;;;;;;;4943559;29;20052;-81
2022/04/08 11:46:34;;;;;;;5.40;3.00;;;;;;;;;;4954879;29;20055;-80
2022/04/08 11:49:04;;;;;;;6.15;3.28;;;;;;;;;;4957912;29;20462;-80
2022/04/08 11:51:31;;;;;;;9.80;5.80;;;;;;;;;;4957465;29;20058;-80
2022/04/08 11:54:03;;;;;;;6.25;3.58;;;;;;;;;;4960334;29;20051;-80
2022/04/08 11:56:30;;;;;;;6.85;3.67;;;;;;;;;;4962828;29;20062;-81
2022/04/08 11:58:59;;;;;;;5.22;3.10;;;;;;;;;;4966645;28;20043;-81
2022/04/08 12:01:30;;;;;;;5.50;3.20;;;;;;;;;;4968730;29;20047;-81
2022/04/08 12:04:00;;;;;;;6.18;3.45;;;;;;;;;;4961561;29;20130;-81
2022/04/08 12:06:34;;;;;;;6.27;3.60;;;;;;;;;;4960901;29;20043;-81
2022/04/08 12:09:03;;;;;;;7.00;3.30;;;;;;;;;;4962587;29;20051;-81
2022/04/08 12:11:30;;;;;;;7.35;4.05;;;;;;;;;;4962035;29;20095;-80
2022/04/08 12:13:58;;;;;;;4.95;3.00;;;;;;;;;;4960623;29;20109;-80
2022/04/08 12:16:29;;;;;;;5.15;3.47;;;;;;;;;;4961928;29;20051;-80
2022/04/08 12:18:57;;;;;;;4.90;3.00;;;;;;;;;;4961121;29;20111;-82
2022/04/08 12:21:25;;;;;;;5.80;3.08;;;;;;;;;;4962093;29;20078;-81
2022/04/08 12:23:54;;;;;;;6.60;3.30;;;;;;;;;;4962698;29;20448;-82
2022/04/08 12:26:25;;;;;;;7.97;4.47;;;;;;;;;;4962013;29;20047;-79
2022/04/08 12:29:05;;;;;;;12.45;8.65;;;;;;;;;;4961387;29;20051;-80
2022/04/08 12:31:32;;;;;;;9.40;5.57;;;;;;;;;;4961490;29;20075;-80
2022/04/08 12:33:59;;;;;;;5.40;3.25;;;;;;;;;;4961589;29;20051;-80
2022/04/08 12:36:26;;;;;;;6.10;3.38;;;;;;;;;;4961429;29;20054;-80
2022/04/08 12:38:53;;;;;;;5.90;3.60;;;;;;;;;;4960834;29;20047;-80
2022/04/08 12:41:21;;;;;;;5.03;2.85;;;;;;;;;;4961074;29;20047;-81
2022/04/08 12:43:48;;;;;;;5.47;3.10;;;;;;;;;;4961678;29;20051;-81
2022/04/08 12:46:16;;;;;;;6.95;3.50;;;;;;;;;;4964605;29;20043;-81
2022/04/08 12:48:43;;;;;;;7.50;3.90;;;;;;;;;;4961284;29;20058;-82
2022/04/08 12:51:09;;;;;;;5.75;2.53;;;;;;;;;;4962447;29;20499;-81
2022/04/08 12:53:37;;;;;;;5.57;2.70;;;;;;;;;;4963401;29;20075;-84
2022/04/08 12:56:04;;;;;;;4.47;2.58;;;;;;;;;;4964303;29;20066;-83
2022/04/08 12:58:32;;;;;;;5.38;3.00;;;;;;;;;;4962568;29;20059;-81
2022/04/08 13:00:59;;;;;;;5.13;2.72;;;;;;;;;;4963024;29;20098;-82
2022/04/08 13:03:26;;;;;;;5.00;2.60;;;;;;;;;;4963779;29;20055;-80
2022/04/08 13:05:52;;;;;;;5.35;2.80;;;;;;;;;;4962787;29;20047;-81
2022/04/08 13:08:19;;;;;;;4.28;2.17;;;;;;;;;;4962732;29;20079;-81
2022/04/08 13:10:46;;;;;;;4.68;2.00;;;;;;;;;;4961185;29;20051;-81
2022/04/08 13:13:13;;;;;;;4.13;1.90;;;;;;;;;;4961962;29;20074;-81
2022/04/08 13:15:41;;;;;;;5.18;2.17;;;;;;;;;;4963622;29;20493;-80
2022/04/08 13:18:08;;;;;;;3.95;1.70;;;;;;;;;;4962594;29;20461;-81
2022/04/08 13:20:35;;;;;;;4.20;1.50;;;;;;;;;;4963092;29;20077;-80
2022/04/08 13:23:02;;;;;;;2.83;1.17;;;;;;;;;;4961775;29;20043;-80
2022/04/08 13:25:31;;;;;;;1.52;0.80;;;;;;;;;;4962032;29;20515;-81
2022/04/08 13:27:58;;;;;;;1.35;0.85;;;;;;;;;;4965127;29;20053;-81
2022/04/08 13:30:25;;;;;;;0.90;0.60;;;;;;;;;;4965314;29;20051;-81
2022/04/08 13:32:53;;;;;;;1.40;0.60;;;;;;;;;;4966082;29;20031;-80
2022/04/08 13:35:20;;;;;;;1.83;1.05;;;;;;;;;;4973098;29;20067;-80
2022/04/08 13:37:47;;;;;;;2.42;0.65;;;;;;;;;;4967386;29;20051;-80
2022/04/08 13:40:14;;;;;;;0.60;0.40;;;;;;;;;;4963532;29;20055;-79
2022/04/08 13:42:41;;;;;;;1.13;0.60;;;;;;;;;;4960964;29;20106;-79
2022/04/08 13:45:08;;;;;;;3.70;0.65;;;;;;;;;;4961997;29;20059;-80
2022/04/08 13:47:36;;;;;;;2.30;0.52;;;;;;;;;;4962031;29;20118;-81
2022/04/08 13:50:04;;;;;;;1.70;0.70;;;;;;;;;;4963137;29;20051;-81
2022/04/08 13:52:31;;;;;;;1.45;0.55;;;;;;;;;;4963386;29;20055;-82
2022/04/08 13:54:59;;;;;;;1.52;0.60;;;;;;;;;;4961482;29;20063;-81
2022/04/08 13:57:26;;;;;;;1.05;0.43;;;;;;;;;;4965447;29;20051;-80
2022/04/08 13:59:53;;;;;;;0.63;0.40;;;;;;;;;;4959362;29;20047;-80
2022/04/08 14:02:20;;;;;;;1.33;0.55;;;;;;;;;;4960259;29;20055;-81
2022/04/08 14:04:47;;;;;;;1.13;0.40;;;;;;;;;;4957896;29;20043;-77
2022/04/08 14:07:15;;;;;;;1.77;0.50;;;;;;;;;;4956719;29;20091;-79
2022/04/08 14:09:42;;;;;;;1.65;0.40;;;;;;;;;;4958835;29;20083;-79
2022/04/08 14:12:10;;;;;;;0.55;0.50;;;;;;;;;;4968487;29;20082;-80
2022/04/08 14:14:37;;;;;;;1.63;0.50;;;;;;;;;;4968865;29;20079;-81
2022/04/08 14:17:04;;;;;;;0.90;0.40;;;;;;;;;;4962622;29;20098;-78
2022/04/08 14:19:32;;;;;;;1.05;0.50;;;;;;;;;;4957583;29;20054;-79
2022/04/08 14:21:59;;;;;;;1.15;0.40;;;;;;;;;;4960160;28;20043;-80
2022/04/08 14:24:27;;;;;;;2.40;0.40;;;;;;;;;;4962500;29;20459;-80
2022/04/08 14:26:54;;;;;;;2.92;0.55;;;;;;;;;;4962648;29;20048;-82
2022/04/08 14:29:20;;;;;;;1.35;0.57;;;;;;;;;;4962806;29;20076;-80
2022/04/08 14:31:47;;;;;;;0.68;0.40;;;;;;;;;;4963561;29;20047;-80
2022/04/08 14:34:15;;;;;;;1.42;0.57;;;;;;;;;;4959277;29;20055;-80
2022/04/08 14:36:41;;;;;;;1.80;0.68;;;;;;;;;;4959351;29;20083;-80
2022/04/08 14:39:08;;;;;;;0.65;0.40;;;;;;;;;;4958395;29;20055;-80
2022/04/08 14:41:38;;;;;;;1.52;0.40;;;;;;;;;;4956582;29;20478;-79
2022/04/08 14:44:05;;;;;;;1.47;0.50;;;;;;;;;;4957048;29;20050;-78
2022/04/08 14:46:32;;;;;;;2.42;0.50;;;;;;;;;;4956418;29;20380;-79